Time;durP1;ratioP1;P1;durP2;ratioP2;P2;SDS_P1;SDS_P2;PMS_P1;PMS_P2;Temp;Humidity;BMP_temperature;BMP_pressure;BME280_temperature;BME280_humidity;BME280_pressure;Samples;Min_cycle;Max_cycle;Signal;HPM_P1;HPM_P2
2022/11/05 00:09:39;;;;;;;16.13;5.43;;;6.00;99.90;;;;;;5154557;27;20457;-67
2022/11/05 00:17:39;;;;;;;15.18;5.72;;;;;;;;;;5153416;27;20547;-67
2022/11/05 00:20:06;;;;;;;16.80;5.55;;;;;;;;;;5154423;27;20046;-68
2022/11/05 00:25:18;;;;;;;15.00;4.93;;;5.90;99.90;;;;;;5133209;27;20488;-68
2022/11/05 00:27:51;;;;;;;17.33;5.90;;;5.50;99.90;;;;;;5148965;27;20183;-67
2022/11/05 00:30:19;;;;;;;14.77;5.47;;;;;;;;;;5154722;27;20115;-67
2022/11/05 00:32:46;;;;;;;23.55;6.13;;;5.50;99.90;;;;;;5153403;27;20505;-70
2022/11/05 00:35:13;;;;;;;13.20;5.35;;;5.30;99.90;;;;;;5154156;27;20551;-67
2022/11/05 00:37:39;;;;;;;;;;;;;;;;;;5154672;27;20051;-67
2022/11/05 00:40:05;;;;;;;12.55;5.22;;;5.50;99.90;;;;;;5153791;27;20014;-71
2022/11/05 00:45:16;;;;;;;15.68;5.38;;;;;;;;;;5154430;27;20212;-67
2022/11/05 00:50:27;;;;;;;10.52;4.90;;;5.30;99.90;;;;;;5154134;27;20058;-67
2022/11/05 00:52:54;;;;;;;11.68;5.43;;;;;;;;;;5153609;27;20482;-67
2022/11/05 00:55:27;;;;;;;16.60;6.05;;;5.50;99.90;;;;;;5153488;27;20057;-69
2022/11/05 00:57:53;;;;;;;11.93;4.65;;;5.10;99.90;;;;;;5154256;27;20057;-67
2022/11/05 01:00:19;;;;;;;;;;;5.30;99.90;;;;;;5154394;27;20389;-67
2022/11/05 01:02:45;;;;;;;11.38;5.10;;;5.50;99.90;;;;;;5152997;27;19923;-67
2022/11/05 01:05:11;;;;;;;12.13;5.22;;;5.10;99.90;;;;;;5135660;27;20047;-67
2022/11/05 01:07:36;;;;;;;11.13;4.90;;;5.30;99.90;;;;;;5153725;27;20050;-67
2022/11/05 01:10:03;;;;;;;9.00;5.05;;;5.60;99.90;;;;;;5153427;27;20055;-67
2022/11/05 01:12:30;;;;;;;15.90;5.25;;;5.10;99.90;;;;;;5153688;27;20193;-68
2022/11/05 01:14:56;;;;;;;15.25;5.20;;;5.60;99.90;;;;;;5135373;27;20069;-67
2022/11/05 01:17:22;;;;;;;15.18;5.63;;;5.50;99.90;;;;;;5152878;27;20049;-67
2022/11/05 01:19:48;;;;;;;19.73;5.40;;;;;;;;;;5153915;27;20091;-67
2022/11/05 01:22:13;;;;;;;14.45;4.93;;;5.40;99.90;;;;;;5153535;27;20041;-67
2022/11/05 01:24:39;;;;;;;10.20;5.03;;;5.20;99.90;;;;;;5134464;27;20047;-67
2022/11/05 01:27:05;;;;;;;18.80;6.13;;;;;;;;;;5154011;27;20095;-69
2022/11/05 01:29:31;;;;;;;13.20;6.45;;;5.20;99.90;;;;;;5158133;27;20497;-68
2022/11/05 01:31:57;;;;;;;16.20;5.63;;;;;;;;;;5157065;27;20034;-67
2022/11/05 01:34:23;;;;;;;11.77;5.22;;;;;;;;;;5157936;27;20125;-67
2022/11/05 01:36:49;;;;;;;12.60;5.85;;;5.30;99.90;;;;;;5157460;27;20164;-67
2022/11/05 01:39:15;;;;;;;16.77;5.47;;;;;;;;;;5157499;27;20264;-67
2022/11/05 01:41:41;;;;;;;14.52;5.05;;;;;;;;;;5139367;27;20058;-68
2022/11/05 01:44:46;;;;;;;16.48;5.38;;;5.50;99.90;;;;;;5157860;27;20074;-67
2022/11/05 01:47:32;;;;;;;16.70;5.28;;;5.70;99.90;;;;;;5156825;27;20077;-67
2022/11/05 01:50:01;;;;;;;13.65;4.90;;;5.30;99.90;;;;;;5104724;27;20104;-67
2022/11/05 01:52:30;;;;;;;9.05;4.82;;;5.50;99.90;;;;;;5156818;27;20038;-67
2022/11/05 01:54:56;;;;;;;15.18;4.80;;;;;;;;;;5157668;27;20054;-73
2022/11/05 01:57:23;;;;;;;15.32;4.82;;;;;;;;;;5157386;27;20050;-67
2022/11/05 01:59:53;;;;;;;12.55;4.97;;;5.70;99.90;;;;;;5156871;27;20096;-67
2022/11/05 02:02:19;;;;;;;19.60;5.40;;;5.60;99.90;;;;;;5157336;27;20030;-67
2022/11/05 02:04:49;;;;;;;12.38;5.38;;;5.40;99.90;;;;;;5156658;27;20500;-67
2022/11/05 02:07:16;;;;;;;10.90;4.72;;;;;;;;;;5132676;27;20399;-67
2022/11/05 02:10:01;;;;;;;12.48;5.20;;;5.80;99.90;;;;;;5136639;27;20054;-67
2022/11/05 02:12:28;;;;;;;16.80;5.70;;;5.60;99.90;;;;;;5136386;27;20444;-66
2022/11/05 02:14:54;;;;;;;12.10;4.65;;;;;;;;;;5135753;27;20047;-67
2022/11/05 02:17:20;;;;;;;14.07;4.75;;;;;;;;;;5136474;27;20161;-66
2022/11/05 02:19:52;;;;;;;15.23;4.97;;;;;;;;;;5117973;27;20133;-69
2022/11/05 02:22:36;;;;;;;14.43;4.10;;;5.60;99.90;;;;;;5117772;27;20089;-67
2022/11/05 02:25:32;;;;;;;13.57;4.50;;;5.40;99.90;;;;;;5136516;27;20044;-67
2022/11/05 02:28:16;;;;;;;11.43;4.05;;;;;;;;;;5136294;27;20142;-67
2022/11/05 02:31:02;;;;;;;14.18;4.50;;;;;;;;;;5135448;27;20047;-67
2022/11/05 02:33:55;;;;;;;12.57;4.07;;;5.50;99.90;;;;;;5136228;27;20126;-67
2022/11/05 02:36:45;;;;;;;16.30;4.00;;;5.80;99.90;;;;;;5135644;27;20297;-67
2022/11/05 02:39:21;;;;;;;11.88;3.97;;;;;;;;;;5135777;27;20043;-67
2022/11/05 02:41:53;;;;;;;15.88;4.10;;;;;;;;;;5135998;27;20079;-67
2022/11/05 02:44:33;;;;;;;14.60;3.53;;;6.10;99.90;;;;;;5135206;27;20047;-67
2022/11/05 02:47:10;;;;;;;13.75;4.07;;;;;;;;;;5136686;27;20108;-67
2022/11/05 02:49:39;;;;;;;11.07;3.80;;;6.00;99.90;;;;;;5156639;27;20054;-67
2022/11/05 02:52:14;;;;;;;14.07;4.45;;;;;;;;;;5118934;27;20169;-67
2022/11/05 02:54:58;;;;;;;13.20;3.30;;;6.10;99.90;;;;;;5156584;27;20043;-66
2022/11/05 02:57:23;;;;;;;11.52;3.60;;;5.90;99.90;;;;;;5152666;27;20164;-67
2022/11/05 03:00:05;;;;;;;6.55;3.40;;;5.90;99.90;;;;;;5134895;27;20122;-67
2022/11/05 03:02:31;;;;;;;8.32;3.67;;;;;;;;;;5133208;27;20039;-67
2022/11/05 03:04:57;;;;;;;;;;;5.90;99.90;;;;;;5133888;27;20133;-67
2022/11/05 03:07:35;;;;;;;9.32;3.75;;;5.90;99.90;;;;;;5137731;27;20410;-67
2022/11/05 03:10:17;;;;;;;14.98;3.75;;;5.80;99.90;;;;;;5156012;27;20509;-67
2022/11/05 03:12:49;;;;;;;14.88;3.95;;;;;;;;;;5155647;27;20041;-67
2022/11/05 03:15:20;;;;;;;8.20;3.17;;;;;;;;;;5155675;27;20042;-67
2022/11/05 03:17:48;;;;;;;16.50;3.88;;;5.90;99.90;;;;;;5137027;27;20045;-67
2022/11/05 03:20:22;;;;;;;5.97;3.00;;;;;;;;;;5156043;27;20180;-67
2022/11/05 03:23:14;;;;;;;15.18;3.50;;;6.00;99.90;;;;;;5149469;27;20040;-67
2022/11/05 03:25:47;;;;;;;9.32;3.80;;;6.10;99.90;;;;;;5082545;27;20483;-69
2022/11/05 03:28:14;;;;;;;11.32;3.35;;;6.20;99.90;;;;;;5143867;27;20049;-67
2022/11/05 03:30:41;;;;;;;14.63;3.60;;;6.20;99.90;;;;;;5155308;27;20058;-67
2022/11/05 03:33:16;;;;;;;11.25;3.63;;;6.00;99.90;;;;;;5136896;27;20368;-67
2022/11/05 03:35:50;;;;;;;9.50;3.25;;;6.20;99.90;;;;;;5155396;27;20067;-68
2022/11/05 03:38:25;;;;;;;7.35;3.30;;;6.50;99.90;;;;;;5155020;27;20039;-66
2022/11/05 03:40:55;;;;;;;8.00;3.40;;;6.60;99.90;;;;;;5155632;27;20041;-66
2022/11/05 03:43:26;;;;;;;15.90;3.65;;;6.50;99.90;;;;;;5154702;27;20042;-70
2022/11/05 03:45:57;;;;;;;10.60;3.17;;;6.40;99.90;;;;;;5155585;27;20043;-69
2022/11/05 03:48:26;;;;;;;8.00;2.95;;;6.40;99.90;;;;;;5154839;27;20467;-68
2022/11/05 03:51:09;;;;;;;10.45;3.10;;;;;;;;;;5154219;27;20057;-72
2022/11/05 03:53:44;;;;;;;9.20;3.25;;;6.30;99.90;;;;;;5154758;27;20475;-67
2022/11/05 03:56:14;;;;;;;13.25;3.38;;;;;;;;;;5155113;27;20089;-67
2022/11/05 03:58:42;;;;;;;12.00;3.10;;;;;;;;;;5154504;27;20428;-67
2022/11/05 04:01:08;;;;;;;14.23;3.78;;;6.50;99.90;;;;;;5155240;27;20168;-67
2022/11/05 04:03:35;;;;;;;9.75;3.42;;;6.30;99.90;;;;;;5154961;27;20115;-67
2022/11/05 04:14:32;;;;;;;8.40;3.30;;;6.90;99.90;;;;;;5133532;27;20673;-67
2022/11/05 04:17:10;;;;;;;7.10;2.90;;;;;;;;;;5134177;27;20074;-67
2022/11/05 04:25:08;;;;;;;5.00;2.75;;;6.70;99.90;;;;;;5133830;27;20621;-67
2022/11/05 04:27:35;;;;;;;5.85;2.80;;;7.10;99.90;;;;;;5133785;27;20047;-67
2022/11/05 04:30:19;;;;;;;;;;;7.10;99.90;;;;;;5115559;27;20403;-66
2022/11/05 04:33:00;;;;;;;7.50;2.65;;;;;;;;;;5133886;27;19923;-67
2022/11/05 04:35:31;;;;;;;6.18;2.30;;;7.30;99.90;;;;;;5133077;27;20869;-66
2022/11/05 04:37:57;;;;;;;5.88;2.80;;;;;;;;;;5133912;27;20062;-66
2022/11/05 04:40:22;;;;;;;11.82;2.72;;;7.00;99.90;;;;;;5133487;27;20055;-68
2022/11/05 04:42:48;;;;;;;6.90;2.67;;;6.80;99.90;;;;;;5133272;27;20115;-66
2022/11/05 04:45:14;;;;;;;6.22;2.70;;;6.90;99.90;;;;;;5134073;27;20475;-66
2022/11/05 04:47:40;;;;;;;6.38;2.58;;;6.80;99.90;;;;;;5115361;27;20494;-66
2022/11/05 04:50:07;;;;;;;6.68;3.03;;;6.40;99.90;;;;;;5135348;27;20046;-66
2022/11/05 04:52:33;;;;;;;9.93;2.78;;;7.10;99.90;;;;;;5154231;27;20121;-67
2022/11/05 04:54:59;;;;;;;5.47;3.13;;;6.70;99.90;;;;;;5153740;27;20452;-66
2022/11/05 04:57:25;;;;;;;5.95;2.70;;;;;;;;;;5153771;27;20070;-70
2022/11/05 04:59:51;;;;;;;7.35;2.90;;;6.50;99.90;;;;;;5154054;27;20046;-66
2022/11/05 05:02:16;;;;;;;12.52;3.25;;;7.00;99.90;;;;;;5153281;27;20451;-66
2022/11/05 05:04:42;;;;;;;8.60;3.20;;;;;;;;;;5135258;27;20049;-72
2022/11/05 05:07:08;;;;;;;6.45;3.22;;;6.50;99.90;;;;;;5153536;27;20494;-67
2022/11/05 05:09:34;;;;;;;11.50;3.33;;;;;;;;;;5153622;27;20050;-66
2022/11/05 05:12:01;;;;;;;10.07;3.47;;;;;;;;;;5154027;27;20331;-66
2022/11/05 05:14:27;;;;;;;5.40;3.28;;;6.30;99.90;;;;;;5153290;27;20043;-70
2022/11/05 05:16:53;;;;;;;10.02;3.40;;;;;;;;;;5154033;27;20042;-66
2022/11/05 05:19:19;;;;;;;8.38;3.20;;;6.70;99.90;;;;;;5153699;27;20043;-66
2022/11/05 05:21:45;;;;;;;8.10;3.50;;;6.90;99.90;;;;;;5153571;27;20045;-66
2022/11/05 05:24:12;;;;;;;11.43;3.67;;;;;;;;;;5153482;27;20039;-66
2022/11/05 05:26:40;;;;;;;10.02;3.75;;;6.50;99.90;;;;;;5153958;27;20451;-66
2022/11/05 05:29:06;;;;;;;12.52;3.72;;;7.00;99.90;;;;;;5153170;27;20087;-66
2022/11/05 05:31:32;;;;;;;14.35;3.40;;;6.90;99.90;;;;;;5153786;27;20047;-74
2022/11/05 05:33:58;;;;;;;;;;;6.80;99.90;;;;;;5153858;27;20543;-71
2022/11/05 05:36:24;;;;;;;11.90;3.70;;;6.80;99.90;;;;;;5152796;27;19919;-67
2022/11/05 05:38:50;;;;;;;11.35;4.45;;;7.30;99.90;;;;;;5153264;27;20047;-66
2022/11/05 05:41:16;;;;;;;11.70;3.80;;;7.30;99.90;;;;;;5153732;27;20095;-66
2022/11/05 05:43:41;;;;;;;11.38;4.40;;;7.20;99.90;;;;;;5153035;27;20043;-66
2022/11/05 05:46:10;;;;;;;10.35;3.72;;;7.30;99.90;;;;;;5153744;27;20383;-67
2022/11/05 05:48:35;;;;;;;15.20;4.28;;;6.60;99.90;;;;;;5153532;27;20164;-66
2022/11/05 05:51:07;;;;;;;8.52;3.42;;;7.00;99.90;;;;;;5153240;27;20125;-66
2022/11/05 05:53:33;;;;;;;9.73;3.08;;;6.80;99.90;;;;;;5153094;27;20083;-66
2022/11/05 05:55:59;;;;;;;10.77;3.45;;;6.80;99.90;;;;;;5135424;27;20146;-69
2022/11/05 05:58:26;;;;;;;9.75;3.70;;;;;;;;;;5152929;27;20129;-67
2022/11/05 06:00:53;;;;;;;8.27;3.70;;;7.00;99.90;;;;;;5153633;27;20178;-66
2022/11/05 06:03:18;;;;;;;7.78;3.40;;;7.00;99.90;;;;;;5153408;27;20062;-66
2022/11/05 06:05:44;;;;;;;15.43;3.78;;;6.60;99.90;;;;;;5153099;27;20367;-66
2022/11/05 06:08:10;;;;;;;9.25;3.30;;;6.70;99.90;;;;;;5153374;27;20047;-67
2022/11/05 06:10:36;;;;;;;10.48;3.58;;;5.90;99.90;;;;;;5152971;27;20038;-66
2022/11/05 06:13:02;;;;;;;6.72;3.20;;;;;;;;;;5153186;27;20050;-66
2022/11/05 06:15:28;;;;;;;;;;;6.60;99.90;;;;;;5139148;27;20039;-66
2022/11/05 06:17:53;;;;;;;9.32;3.20;;;6.10;99.90;;;;;;5138729;27;19930;-66
2022/11/05 06:20:19;;;;;;;11.00;3.80;;;6.10;99.90;;;;;;5155809;27;20055;-68
2022/11/05 06:22:57;;;;;;;6.78;3.38;;;6.10;99.90;;;;;;5156940;27;20039;-66
2022/11/05 06:25:24;;;;;;;10.60;3.75;;;;;;;;;;5156885;27;20065;-67
2022/11/05 06:27:49;;;;;;;;;;;6.40;99.90;;;;;;5157090;27;20049;-70
2022/11/05 06:30:16;;;;;;;8.95;3.83;;;;;;;;;;5156863;27;20009;-66
2022/11/05 06:32:42;;;;;;;11.55;3.72;;;5.80;99.90;;;;;;5156958;27;20100;-67
2022/11/05 06:35:08;;;;;;;;;;;;;;;;;;5156123;27;20046;-66
2022/11/05 06:37:34;;;;;;;9.85;3.63;;;6.10;99.90;;;;;;5156975;27;20407;-71
2022/11/05 06:40:00;;;;;;;11.43;4.32;;;;;;;;;;5156561;27;20050;-67
2022/11/05 06:42:27;;;;;;;9.13;4.00;;;;;;;;;;5156259;27;20043;-67
2022/11/05 06:44:52;;;;;;;;;;;6.60;99.90;;;;;;5156962;27;20050;-66
2022/11/05 06:47:18;;;;;;;12.50;5.00;;;6.80;99.90;;;;;;5156734;27;20430;-67
2022/11/05 06:49:45;;;;;;;12.45;4.43;;;6.50;99.90;;;;;;5155658;27;20054;-69
2022/11/05 06:52:11;;;;;;;9.90;4.60;;;6.20;99.90;;;;;;5156581;27;20035;-67
2022/11/05 06:54:37;;;;;;;9.70;4.22;;;6.40;99.90;;;;;;5156281;27;20077;-67
2022/11/05 06:57:05;;;;;;;12.63;4.65;;;;;;;;;;5156061;27;20047;-66
2022/11/05 06:59:31;;;;;;;12.30;5.07;;;;;;;;;;5156242;27;20117;-66
2022/11/05 07:01:56;;;;;;;7.35;5.50;;;6.90;99.90;;;;;;5156396;27;20050;-67
2022/11/05 07:04:22;;;;;;;10.80;5.07;;;;;;;;;;5136912;27;20043;-66
2022/11/05 07:06:48;;;;;;;11.98;5.15;;;;;;;;;;5155872;27;20042;-67
2022/11/05 07:09:14;;;;;;;11.05;5.57;;;6.70;99.90;;;;;;5150801;27;20130;-66
2022/11/05 07:11:40;;;;;;;9.57;5.13;;;6.40;99.90;;;;;;5154595;27;20461;-69
2022/11/05 07:14:05;;;;;;;13.80;6.22;;;6.90;99.90;;;;;;5133692;27;20042;-67
2022/11/05 07:16:31;;;;;;;13.32;6.20;;;6.10;99.90;;;;;;5135394;27;20118;-67
2022/11/05 07:18:57;;;;;;;12.55;5.82;;;6.80;99.90;;;;;;5116071;27;20043;-67
2022/11/05 07:21:22;;;;;;;8.80;5.72;;;6.50;99.90;;;;;;5135085;27;20058;-67
2022/11/05 07:23:48;;;;;;;11.35;6.65;;;;;;;;;;5135086;27;20107;-66
2022/11/05 07:26:14;;;;;;;12.02;6.68;;;6.60;99.90;;;;;;5133506;27;20467;-66
2022/11/05 07:28:40;;;;;;;14.30;6.75;;;6.50;99.90;;;;;;5135086;27;20047;-70
2022/11/05 07:31:06;;;;;;;12.23;6.90;;;;;;;;;;5131879;27;20161;-68
2022/11/05 07:33:31;;;;;;;12.77;7.15;;;6.70;99.90;;;;;;5133917;27;20451;-68
2022/11/05 07:35:57;;;;;;;12.85;7.38;;;6.70;99.90;;;;;;5134440;27;20086;-68
2022/11/05 07:38:23;;;;;;;13.27;7.07;;;;;;;;;;5155703;27;20038;-68
2022/11/05 07:40:50;;;;;;;21.25;7.47;;;;;;;;;;5154849;27;20050;-68
2022/11/05 07:43:15;;;;;;;16.50;7.60;;;6.80;99.90;;;;;;5155633;27;20066;-68
2022/11/05 07:45:41;;;;;;;14.77;7.68;;;7.20;99.90;;;;;;5155383;27;20134;-68
2022/11/05 07:48:07;;;;;;;14.57;8.00;;;7.60;99.90;;;;;;5149721;27;20074;-68
2022/11/05 07:50:36;;;;;;;11.30;7.53;;;7.60;99.90;;;;;;5148593;27;20085;-69
2022/11/05 07:53:03;;;;;;;15.85;7.80;;;;;;;;;;5155318;27;20038;-68
2022/11/05 07:55:29;;;;;;;12.77;7.30;;;8.10;99.90;;;;;;5154591;27;20047;-68
2022/11/05 07:57:55;;;;;;;13.55;7.47;;;8.10;99.90;;;;;;5155364;27;20513;-69
2022/11/05 08:00:22;;;;;;;10.80;6.70;;;;;;;;;;5154659;27;20035;-68
2022/11/05 08:03:06;;;;;;;12.13;6.22;;;7.70;99.90;;;;;;5151200;27;20062;-69
2022/11/05 08:05:35;;;;;;;14.23;6.47;;;7.70;99.90;;;;;;5127355;27;20046;-68
2022/11/05 08:08:01;;;;;;;8.38;5.70;;;8.30;99.90;;;;;;5145167;27;20054;-70
2022/11/05 08:10:27;;;;;;;12.45;5.85;;;7.90;99.90;;;;;;5142216;27;20372;-66
2022/11/05 08:12:54;;;;;;;9.88;5.72;;;8.70;99.90;;;;;;5134131;27;20035;-68
2022/11/05 08:15:20;;;;;;;11.05;5.50;;;8.30;99.90;;;;;;5138352;27;20081;-68
2022/11/05 08:17:46;;;;;;;7.75;5.07;;;8.10;99.90;;;;;;5123812;27;20122;-68
2022/11/05 08:20:13;;;;;;;9.30;5.03;;;8.30;99.90;;;;;;5143495;27;20086;-68
2022/11/05 08:22:43;;;;;;;10.45;5.28;;;7.70;99.90;;;;;;5143555;27;20082;-82
2022/11/05 08:25:10;;;;;;;10.80;5.55;;;;;;;;;;5141320;27;20511;-68
2022/11/05 08:27:35;;;;;;;;;;;8.60;99.90;;;;;;5154680;27;20078;-67
2022/11/05 08:30:02;;;;;;;10.15;4.93;;;8.00;99.90;;;;;;5145414;27;19965;-69
2022/11/05 08:32:27;;;;;;;11.05;5.22;;;8.20;99.90;;;;;;5117778;27;20035;-67
2022/11/05 08:34:53;;;;;;;11.20;5.88;;;7.90;99.90;;;;;;5154000;27;20045;-66
2022/11/05 08:37:19;;;;;;;10.82;5.65;;;8.00;99.90;;;;;;5153855;27;20047;-66
2022/11/05 08:39:44;;;;;;;17.15;5.45;;;8.20;99.90;;;;;;5134785;27;20092;-66
2022/11/05 08:42:10;;;;;;;9.70;5.55;;;7.90;99.90;;;;;;5154091;27;20080;-67
2022/11/05 08:44:36;;;;;;;10.32;5.07;;;7.80;99.90;;;;;;5154133;27;20115;-67
2022/11/05 08:47:01;;;;;;;10.15;5.13;;;7.90;99.90;;;;;;5153723;27;20605;-66
2022/11/05 08:49:27;;;;;;;13.38;4.93;;;7.80;99.90;;;;;;5153760;27;20043;-66
2022/11/05 08:51:53;;;;;;;12.07;5.60;;;8.50;99.90;;;;;;5154219;27;20496;-66
2022/11/05 08:54:18;;;;;;;12.55;6.30;;;8.50;99.90;;;;;;5143909;27;20051;-66
2022/11/05 08:56:44;;;;;;;14.50;7.03;;;8.10;99.90;;;;;;5153118;27;20042;-66
2022/11/05 08:59:10;;;;;;;12.82;6.07;;;8.80;99.90;;;;;;5153283;27;20132;-71
2022/11/05 09:01:35;;;;;;;10.27;6.43;;;8.70;99.90;;;;;;5152765;27;20046;-67
2022/11/05 09:04:01;;;;;;;15.18;6.35;;;8.50;99.90;;;;;;5153998;27;20379;-67
2022/11/05 09:06:27;;;;;;;14.07;6.78;;;9.00;99.90;;;;;;5153881;27;20095;-66
2022/11/05 09:08:53;;;;;;;12.15;6.75;;;8.90;99.90;;;;;;5154087;27;20051;-67
2022/11/05 09:11:19;;;;;;;10.45;6.03;;;9.30;99.90;;;;;;5153262;27;20479;-66
2022/11/05 09:13:45;;;;;;;17.33;6.50;;;9.40;99.90;;;;;;5135561;27;20042;-72
2022/11/05 09:16:22;;;;;;;10.23;6.32;;;8.90;99.90;;;;;;5153601;27;20482;-66
2022/11/05 09:18:48;;;;;;;10.80;5.22;;;9.20;99.90;;;;;;5153851;27;20042;-66
2022/11/05 09:21:15;;;;;;;9.90;5.30;;;9.50;99.90;;;;;;5153464;27;20573;-65
2022/11/05 09:23:40;;;;;;;12.23;5.70;;;9.40;99.90;;;;;;5153900;27;20074;-66
2022/11/05 09:26:06;;;;;;;12.13;5.72;;;9.30;99.90;;;;;;5153189;27;20089;-69
2022/11/05 09:28:32;;;;;;;10.15;4.88;;;9.50;99.90;;;;;;5153944;27;20130;-66
2022/11/05 09:30:58;;;;;;;11.13;5.63;;;9.40;99.90;;;;;;5153314;27;20046;-67
2022/11/05 09:33:25;;;;;;;13.32;5.25;;;9.40;99.90;;;;;;5134943;27;20049;-66
2022/11/05 09:35:52;;;;;;;14.38;5.38;;;9.60;99.90;;;;;;5153260;27;20139;-67
2022/11/05 09:38:18;;;;;;;12.27;5.45;;;9.80;99.90;;;;;;5153962;27;20137;-66
2022/11/05 09:41:04;;;;;;;9.98;4.85;;;9.90;99.90;;;;;;5152740;27;20126;-66
2022/11/05 09:43:54;;;;;;;13.10;5.60;;;10.10;99.90;;;;;;5119154;28;20499;-66
2022/11/05 09:46:26;;;;;;;9.82;5.13;;;10.10;99.90;;;;;;5146546;27;20046;-66
2022/11/05 09:49:06;;;;;;;9.45;5.30;;;10.30;99.90;;;;;;5154895;27;20498;-67
2022/11/05 09:51:33;;;;;;;12.63;5.00;;;10.20;99.90;;;;;;5157304;27;20053;-71
2022/11/05 09:54:00;;;;;;;9.10;5.22;;;10.40;99.90;;;;;;5156921;27;20126;-71
2022/11/05 09:56:30;;;;;;;9.50;4.78;;;10.30;99.90;;;;;;5157263;27;20117;-67
2022/11/05 09:59:14;;;;;;;7.72;4.70;;;10.60;99.90;;;;;;5138666;27;20487;-66
2022/11/05 10:01:41;;;;;;;12.30;5.28;;;10.60;99.90;;;;;;5154856;27;20118;-66
2022/11/05 10:04:24;;;;;;;8.88;4.30;;;11.00;99.90;;;;;;5136547;27;20043;-67
2022/11/05 10:06:57;;;;;;;14.48;4.78;;;11.10;99.90;;;;;;5152988;27;20138;-67
2022/11/05 10:09:36;;;;;;;11.55;4.47;;;11.30;99.90;;;;;;5156643;27;20059;-67
2022/11/05 10:12:24;;;;;;;7.35;2.88;;;11.80;99.90;;;;;;5156324;27;20043;-70
2022/11/05 10:15:22;;;;;;;8.45;2.65;;;11.40;99.90;;;;;;5138190;27;20108;-69
2022/11/05 10:17:53;;;;;;;6.05;2.90;;;11.60;99.90;;;;;;5127182;27;20051;-67
2022/11/05 10:20:37;;;;;;;9.57;2.50;;;11.70;99.90;;;;;;5130446;27;20055;-66
2022/11/05 10:23:11;;;;;;;9.52;2.80;;;11.80;99.90;;;;;;5135442;27;20043;-67
2022/11/05 10:25:41;;;;;;;5.72;2.78;;;11.80;99.90;;;;;;5143411;27;20078;-67
2022/11/05 10:28:09;;;;;;;8.75;2.47;;;11.70;99.90;;;;;;5155494;27;20058;-66
2022/11/05 10:30:35;;;;;;;8.25;3.78;;;11.60;99.90;;;;;;5130900;27;20043;-67
2022/11/05 10:33:05;;;;;;;7.88;2.50;;;12.00;99.90;;;;;;5152174;27;20497;-66
2022/11/05 10:35:34;;;;;;;7.68;2.70;;;11.70;99.90;;;;;;5149514;27;20100;-67
2022/11/05 10:38:00;;;;;;;9.70;3.28;;;12.00;99.90;;;;;;5134102;27;20052;-70
2022/11/05 10:40:31;;;;;;;8.25;2.95;;;12.20;99.90;;;;;;5135687;27;20051;-83
2022/11/05 10:43:04;;;;;;;7.43;2.60;;;11.90;99.90;;;;;;5134992;27;20046;-68
2022/11/05 10:46:09;;;;;;;9.20;3.00;;;11.90;99.90;;;;;;5135278;27;20513;-67
2022/11/05 10:48:56;;;;;;;10.70;3.50;;;12.20;99.90;;;;;;5032755;28;20049;-67
2022/11/05 10:51:22;;;;;;;7.63;2.88;;;12.00;99.90;;;;;;5128895;27;20055;-67
2022/11/05 10:54:02;;;;;;;;;;;12.20;99.90;;;;;;5136349;27;20566;-67
2022/11/05 10:56:35;;;;;;;11.55;2.90;;;12.10;99.90;;;;;;5136084;27;19923;-69
2022/11/05 10:59:02;;;;;;;10.20;3.63;;;12.10;99.90;;;;;;5136488;27;20387;-67
2022/11/05 11:01:29;;;;;;;6.90;3.00;;;11.80;99.90;;;;;;5136224;27;20112;-67
2022/11/05 11:04:14;;;;;;;5.82;3.00;;;12.00;99.90;;;;;;5135823;27;20499;-67
2022/11/05 11:06:47;;;;;;;7.45;2.63;;;12.30;99.90;;;;;;5136089;27;20047;-67
2022/11/05 11:09:29;;;;;;;12.15;3.70;;;12.40;99.90;;;;;;5136085;27;20059;-69
2022/11/05 11:11:59;;;;;;;5.57;3.20;;;12.60;99.90;;;;;;5135704;27;20050;-67
2022/11/05 11:14:26;;;;;;;7.85;3.75;;;12.20;99.90;;;;;;5135973;27;20058;-67
2022/11/05 11:16:56;;;;;;;;;;;12.10;99.90;;;;;;5136285;27;20043;-67
2022/11/05 11:19:33;;;;;;;8.88;3.70;;;12.60;99.90;;;;;;5135976;27;19920;-68
2022/11/05 11:22:04;;;;;;;10.02;3.80;;;12.10;99.90;;;;;;5135820;27;20042;-67
2022/11/05 11:24:42;;;;;;;9.38;3.78;;;12.70;99.90;;;;;;5135706;27;20050;-67
2022/11/05 11:27:21;;;;;;;7.80;3.50;;;12.20;99.90;;;;;;5135497;27;20043;-70
2022/11/05 11:30:01;;;;;;;6.55;3.65;;;12.80;99.90;;;;;;5135664;27;20133;-68
2022/11/05 11:32:34;;;;;;;9.25;3.75;;;12.80;99.90;;;;;;5135477;27;20046;-67
2022/11/05 11:35:01;;;;;;;10.95;3.25;;;12.70;99.90;;;;;;5135569;27;20129;-67
2022/11/05 11:37:34;;;;;;;8.25;3.42;;;12.80;99.90;;;;;;5134944;27;20063;-67
2022/11/05 11:40:11;;;;;;;6.50;2.83;;;12.90;99.90;;;;;;5135147;27;20047;-67
2022/11/05 11:42:40;;;;;;;7.63;2.30;;;12.70;99.90;;;;;;5135459;27;20040;-65
2022/11/05 11:45:16;;;;;;;6.72;2.88;;;12.60;99.90;;;;;;5135280;27;20047;-66
2022/11/05 11:47:44;;;;;;;7.43;2.70;;;12.50;99.90;;;;;;5135296;27;20079;-67
2022/11/05 11:50:37;;;;;;;6.80;2.53;;;12.50;99.90;;;;;;5135202;27;20050;-66
2022/11/05 11:53:23;;;;;;;16.27;3.17;;;12.70;99.90;;;;;;5135114;27;20047;-66
2022/11/05 11:55:59;;;;;;;7.22;2.30;;;12.40;99.90;;;;;;5134842;27;20094;-66
2022/11/05 11:58:56;;;;;;;4.47;1.90;;;12.70;99.90;;;;;;5135098;27;20089;-66
2022/11/05 12:02:02;;;;;;;5.22;2.15;;;12.30;99.90;;;;;;5113568;27;20053;-66
2022/11/05 12:04:52;;;;;;;5.57;2.00;;;12.20;99.90;;;;;;5134907;27;20051;-70
2022/11/05 12:07:26;;;;;;;8.10;2.17;;;12.20;99.90;;;;;;5116547;27;20403;-70
2022/11/05 12:10:01;;;;;;;10.48;2.13;;;12.30;99.90;;;;;;5134627;27;20043;-66
2022/11/05 12:12:40;;;;;;;3.72;2.22;;;12.50;99.90;;;;;;5133843;27;20036;-66
2022/11/05 12:15:28;;;;;;;6.93;2.10;;;12.30;99.90;;;;;;5134758;27;20047;-65
2022/11/05 12:18:04;;;;;;;5.57;1.92;;;12.70;99.90;;;;;;5134727;27;20043;-66
2022/11/05 12:20:39;;;;;;;7.95;1.98;;;12.30;99.90;;;;;;5116349;27;20047;-66
2022/11/05 12:23:25;;;;;;;6.55;1.80;;;12.30;99.90;;;;;;5134521;27;20052;-65
2022/11/05 12:26:06;;;;;;;5.00;1.80;;;12.10;99.90;;;;;;5134628;27;20051;-67
2022/11/05 12:28:32;;;;;;;5.72;1.60;;;11.60;99.90;;;;;;5134520;27;20073;-66
2022/11/05 12:31:04;;;;;;;3.55;1.70;;;12.80;99.90;;;;;;5134385;27;20478;-66
2022/11/05 12:33:58;;;;;;;5.93;1.70;;;11.40;99.90;;;;;;5134257;27;20079;-67
2022/11/05 12:36:50;;;;;;;2.72;1.20;;;11.60;99.90;;;;;;5133954;27;20139;-67
2022/11/05 12:39:57;;;;;;;2.78;1.10;;;11.60;99.90;;;;;;5134046;27;20058;-66
2022/11/05 12:42:26;;;;;;;3.77;1.30;;;11.60;99.90;;;;;;5094000;27;20047;-67
2022/11/05 12:45:03;;;;;;;6.40;1.42;;;11.80;99.90;;;;;;5134275;27;20629;-67
2022/11/05 12:47:35;;;;;;;1.55;0.98;;;11.70;99.90;;;;;;5134329;27;20090;-71
2022/11/05 12:50:29;;;;;;;2.17;1.00;;;11.70;99.90;;;;;;5115858;27;20126;-67
2022/11/05 12:53:36;;;;;;;3.33;1.30;;;11.30;99.90;;;;;;5094032;27;20395;-68
2022/11/05 12:56:12;;;;;;;3.67;1.38;;;11.10;99.90;;;;;;5111672;27;20051;-66
2022/11/05 12:58:46;;;;;;;6.05;1.80;;;11.50;99.90;;;;;;5134068;27;20046;-66
2022/11/05 13:01:19;;;;;;;3.40;1.30;;;11.40;99.90;;;;;;5133957;27;20042;-67
2022/11/05 13:03:48;;;;;;;4.55;1.30;;;11.30;99.90;;;;;;5133958;27;20046;-67
2022/11/05 13:06:20;;;;;;;4.05;1.08;;;13.30;99.90;;;;;;5133977;27;20058;-69
2022/11/05 13:09:06;;;;;;;6.03;1.58;;;11.30;99.90;;;;;;5133598;27;20118;-66
2022/11/05 13:11:37;;;;;;;3.58;1.50;;;11.50;99.90;;;;;;5133967;27;20054;-67
2022/11/05 13:14:21;;;;;;;4.50;1.45;;;11.00;99.90;;;;;;5133544;27;20513;-66
2022/11/05 13:16:49;;;;;;;4.40;1.77;;;11.20;99.90;;;;;;5133779;28;20043;-66
2022/11/05 13:19:25;;;;;;;4.78;1.70;;;11.10;99.90;;;;;;5133768;28;20086;-67
2022/11/05 13:21:55;;;;;;;5.75;1.80;;;11.10;99.90;;;;;;5133603;28;20180;-66
2022/11/05 13:24:30;;;;;;;6.82;1.75;;;11.10;99.90;;;;;;5136359;27;20051;-66
2022/11/05 13:27:11;;;;;;;4.85;2.00;;;11.30;99.90;;;;;;5138116;27;20051;-67
2022/11/05 13:29:51;;;;;;;5.50;2.15;;;11.00;99.90;;;;;;5138002;27;20058;-66
2022/11/05 13:32:30;;;;;;;5.60;2.00;;;11.20;99.90;;;;;;5137987;27;20039;-66
2022/11/05 13:35:00;;;;;;;3.10;1.92;;;11.00;99.90;;;;;;5137876;27;20088;-67
2022/11/05 13:40:56;;;;;;;4.95;1.90;;;11.10;99.90;;;;;;5136855;27;20146;-80
2022/11/05 13:43:41;;;;;;;6.72;2.17;;;11.10;99.90;;;;;;5135669;27;20440;-68
2022/11/05 13:46:33;;;;;;;8.35;2.60;;;11.40;99.90;;;;;;5137548;27;20403;-68
2022/11/05 13:49:20;;;;;;;4.53;2.20;;;11.30;99.90;;;;;;5137582;27;20442;-68
2022/11/05 13:52:08;;;;;;;5.57;2.25;;;11.00;99.90;;;;;;5137308;27;20109;-67
2022/11/05 13:54:48;;;;;;;4.43;2.15;;;11.20;99.90;;;;;;5119185;27;20058;-67
2022/11/05 13:57:36;;;;;;;4.28;2.47;;;11.00;99.90;;;;;;5137564;27;20082;-67
2022/11/05 14:00:28;;;;;;;6.35;2.60;;;11.30;99.90;;;;;;5137381;27;20047;-67
2022/11/05 14:02:59;;;;;;;4.93;2.60;;;11.10;99.90;;;;;;5130444;27;20044;-67
2022/11/05 14:05:34;;;;;;;4.55;3.00;;;11.50;99.90;;;;;;5136786;27;20502;-69
2022/11/05 14:08:11;;;;;;;4.97;2.80;;;11.20;99.90;;;;;;5137359;27;20511;-68
2022/11/05 14:10:44;;;;;;;7.07;2.88;;;10.90;99.90;;;;;;5137317;27;20403;-67